Time;durP1;ratioP1;P1;durP2;ratioP2;P2;SDS_P1;SDS_P2;PMS_P1;PMS_P2;Temp;Humidity;BMP_temperature;BMP_pressure;BME280_temperature;BME280_humidity;BME280_pressure;Samples;Min_cycle;Max_cycle;Signal;HPM_P1;HPM_P2
2023/10/12 00:04:11;;;;;;;50.00;45.80;;;;;;;18.18;84.34;99826.55;223593;1267;139856;-86
2023/10/12 00:10:09;;;;;;;37.10;33.30;;;;;;;18.20;84.10;99825.54;223539;1263;140287;-87
2023/10/12 00:15:57;;;;;;;38.80;35.50;;;;;;;18.26;83.75;99820.10;224152;1264;139498;-84
2023/10/12 00:21:41;;;;;;;;;;;;;;;;;;;;;
2023/10/12 00:27:18;;;;;;;38.60;32.30;;;;;;;18.40;83.01;99807.30;224258;1263;139369;-87
2023/10/12 00:32:52;;;;;;;60.20;54.80;;;;;;;18.45;82.77;99804.98;223698;1267;141045;-85
2023/10/12 00:38:41;;;;;;;;;;;;;;;;;;;;;
2023/10/12 00:45:19;;;;;;;29.40;25.90;;;;;;;18.55;82.18;99798.31;223751;1266;139687;-86
2023/10/12 00:50:56;;;;;;;34.10;28.20;;;;;;;18.56;82.12;99795.87;223701;1268;140397;-87
2023/10/12 00:56:43;;;;;;;39.50;36.00;;;;;;;18.61;81.79;99789.27;224689;1264;95962;-86
2023/10/12 01:02:04;;;;;;;;;;;;;;;;;;;;;
2023/10/12 01:08:05;;;;;;;35.60;30.00;;;;;;;18.65;81.58;99779.26;224246;1263;138902;-86
2023/10/12 01:14:09;;;;;;;21.60;14.70;;;;;;;18.68;81.45;99771.67;223725;1264;141384;-86
2023/10/12 01:20:39;;;;;;;30.50;25.50;;;;;;;18.71;81.27;99760.59;224160;1264;138891;-86
2023/10/12 01:31:54;;;;;;;29.70;24.60;;;;;;;18.72;81.04;99759.11;223708;1264;140215;-84
2023/10/12 01:38:00;;;;;;;33.50;30.40;;;;;;;18.72;80.91;99753.48;224244;1264;138732;-86
2023/10/12 01:43:54;;;;;;;26.10;22.50;;;;;;;18.70;81.03;99749.88;223583;1264;140358;-87
2023/10/12 01:49:46;;;;;;;;;;;;;;;;;;;;;
2023/10/12 01:55:43;;;;;;;;;;;;;;;;;;;;;
2023/10/12 02:01:34;;;;;;;;;;;;;;;;;;;;;
2023/10/12 02:07:22;;;;;;;;;;;;;;;;;;;;;
2023/10/12 02:13:00;;;;;;;29.40;25.90;;;;;;;18.57;81.54;99742.11;223714;1264;140653;-87
2023/10/12 02:18:43;;;;;;;30.30;22.70;;;;;;;18.57;81.66;99742.25;224252;1264;138779;-87
2023/10/12 02:24:36;;;;;;;28.80;23.60;;;;;;;18.58;81.58;99745.98;223561;1264;140508;-85
2023/10/12 02:30:30;;;;;;;43.80;39.60;;;;;;;18.60;81.50;99746.52;223751;1264;140049;-86
2023/10/12 02:36:26;;;;;;;;;;;;;;;;;;;;;
2023/10/12 02:41:52;;;;;;;22.30;17.80;;;;;;;18.62;81.30;99750.91;223882;1263;140290;-86
2023/10/12 02:47:33;;;;;;;;;;;;;;;;;;;;;
2023/10/12 02:53:09;;;;;;;29.60;23.10;;;;;;;18.64;81.20;99744.42;224170;1264;140673;-86
2023/10/12 02:59:13;;;;;;;25.80;22.50;;;;;;;18.67;81.08;99739.63;224192;1264;139697;-84
2023/10/12 03:04:37;;;;;;;;;;;;;;;;;;;;;
2023/10/12 03:09:55;;;;;;;;;;;;;;;;;;;;;
2023/10/12 03:21:53;;;;;;;25.00;18.50;;;;;;;18.72;80.90;99727.34;223698;1264;140532;-85
2023/10/12 03:27:53;;;;;;;27.90;25.10;;;;;;;18.70;80.84;99751.08;224326;1263;139068;-85
2023/10/12 03:34:16;;;;;;;27.80;19.30;;;;;;;18.68;80.86;99751.70;223747;1264;139972;-84
2023/10/12 03:39:26;;;;;;;53.50;48.70;;;;;;;18.68;80.99;99740.14;224105;1264;139434;-84
2023/10/12 03:49:58;;;;;;;28.90;26.50;;;;;;;18.65;81.13;99737.85;224248;1263;139103;-86
2023/10/12 04:01:53;;;;;;;33.90;31.10;;;;;;;18.62;81.21;99743.55;223624;1263;140305;-86
2023/10/12 04:07:37;;;;;;;;;;;;;;;;;;;;;
2023/10/12 04:12:54;;;;;;;;;;;;;;;;;;;;;
2023/10/12 04:19:18;;;;;;;53.90;49.60;;;;;;;18.50;82.00;99771.61;224113;1263;139606;-86
2023/10/12 04:29:49;;;;;;;;;;;;;;;18.38;82.58;99778.94;223616;1263;140405;-85
2023/10/12 04:47:35;;;;;;;;;;;;;;;;;;;;;
2023/10/12 04:53:53;;;;;;;87.90;81.10;;;;;;;18.21;84.05;99790.33;223969;1263;140438;-87
2023/10/12 05:10:55;;;;;;;153.50;142.50;;;;;;;18.12;84.86;99806.20;223679;1264;140235;-83
2023/10/12 05:16:17;;;;;;;;;;;;;;;;;;;;;
2023/10/12 05:22:03;;;;;;;226.90;209.30;;;;;;;18.10;85.40;99816.27;223646;1265;141199;-83
2023/10/12 05:28:04;;;;;;;353.40;321.70;;;;;;;18.08;86.09;99819.76;224334;1263;139865;-82
2023/10/12 05:39:22;;;;;;;322.20;294.30;;;;;;;17.97;87.35;99858.75;224470;1263;95883;-85
2023/10/12 05:45:22;;;;;;;358.70;328.40;;;;;;;17.92;88.06;99873.06;224406;1263;226829;-84
2023/10/12 05:51:14;;;;;;;630.20;540.30;;;;;;;17.85;89.05;99885.17;223896;1263;141264;-83
2023/10/12 05:56:56;;;;;;;1069.10;695.10;;;;;;;17.76;90.79;99889.24;224320;1263;112185;-84
2023/10/12 06:02:22;;;;;;;1516.00;815.60;;;;;;;17.64;92.66;99893.93;223571;1263;141231;-83
2023/10/12 06:08:17;;;;;;;1843.20;866.20;;;;;;;17.51;94.40;99889.48;224042;1263;139322;-83
2023/10/12 06:13:16;;;;;;;1999.90;953.80;;;;;;;17.36;96.68;99906.79;223798;1263;140688;-84
2023/10/12 06:18:29;;;;;;;1999.90;990.90;;;;;;;17.24;98.25;99913.44;224425;1263;139985;-83
2023/10/12 06:23:51;;;;;;;1999.90;999.90;;;;;;;17.14;99.60;99921.06;223716;1263;140658;-84
2023/10/12 06:28:54;;;;;;;1999.90;999.90;;;;;;;17.06;100.00;99941.83;224155;1265;139506;-87
2023/10/12 06:34:37;;;;;;;1999.90;999.90;;;;;;;16.95;100.00;99952.08;223791;1263;141489;-86
2023/10/12 06:46:25;;;;;;;1999.90;999.90;;;;;;;16.71;100.00;99972.77;224669;1264;139766;-87
2023/10/12 06:52:19;;;;;;;1999.90;999.90;;;;;;;16.60;100.00;99977.28;223654;1264;141129;-87
2023/10/12 06:58:04;;;;;;;1999.90;999.90;;;;;;;16.43;100.00;99989.20;224348;1263;139831;-86
2023/10/12 07:04:13;;;;;;;1999.90;999.90;;;;;;;16.35;100.00;99990.92;223822;1263;140670;-86
2023/10/12 07:09:37;;;;;;;;;;;;;;;;;;;;;
2023/10/12 07:15:42;;;;;;;1999.90;999.90;;;;;;;16.26;100.00;99988.90;224444;1263;95922;-84
2023/10/12 07:21:25;;;;;;;1999.90;999.90;;;;;;;16.20;100.00;99994.71;223805;1263;141182;-85
2023/10/12 07:27:21;;;;;;;;;;;;;;;;;;;;;
2023/10/12 07:39:14;;;;;;;1999.90;999.90;;;;;;;16.00;100.00;100006.98;224026;1263;140615;-86
2023/10/12 07:44:21;;;;;;;1999.90;999.90;;;;;;;15.95;100.00;100026.96;223887;1263;140645;-89
2023/10/12 07:49:37;;;;;;;1999.90;999.90;;;;;;;15.92;100.00;100038.44;223512;1263;141137;-86
2023/10/12 08:05:43;;;;;;;1999.90;999.90;;;;;;;15.81;100.00;100066.13;224414;1263;139908;-85
2023/10/12 08:11:39;;;;;;;1999.90;999.90;;;;;;;15.77;100.00;100066.28;223774;1263;141101;-87
2023/10/12 08:16:40;;;;;;;1999.90;998.50;;;;;;;15.73;100.00;100089.09;224285;1263;140424;-86
2023/10/12 08:22:09;;;;;;;1999.90;990.40;;;;;;;15.71;100.00;100097.61;223784;1263;141465;-85
2023/10/12 08:28:23;;;;;;;1999.90;999.90;;;;;;;15.72;100.00;100099.90;224427;1263;96399;-86
2023/10/12 08:46:06;;;;;;;;;;;;;;;;;;;;;
2023/10/12 08:52:27;;;;;;;1999.90;963.80;;;;;;;15.89;100.00;100114.92;223767;1263;141055;-85
2023/10/12 09:03:57;;;;;;;;;;;;;;;;;;;;;
2023/10/12 09:15:45;;;;;;;1999.90;915.40;;;;;;;16.09;100.00;100132.13;224232;1263;250782;-85
2023/10/12 09:27:26;;;;;;;1999.90;893.80;;;;;;;16.10;100.00;100132.44;224313;1263;139835;-85
2023/10/12 09:39:27;;;;;;;;;;;;;;;;;;;;;
2023/10/12 09:44:39;;;;;;;1999.90;986.60;;;;;;;16.00;100.00;100140.67;224034;1263;386956;-86
2023/10/12 09:49:53;;;;;;;1999.90;993.10;;;;;;;15.98;100.00;100170.22;223788;1264;141169;-85
2023/10/12 09:55:13;;;;;;;1999.90;999.90;;;;;;;15.87;100.00;100180.13;224319;1266;140444;-86
2023/10/12 10:01:17;;;;;;;1999.90;999.90;;;;;;;15.75;100.00;100195.84;223581;1265;141231;-85
2023/10/12 10:06:48;;;;;;;;;;;;;;;;;;;;;
2023/10/12 10:12:42;;;;;;;1999.90;999.90;;;;;;;15.37;100.00;100206.16;223705;1264;141183;-86
2023/10/12 10:18:31;;;;;;;;;;;;;;;;;;;;;
2023/10/12 10:24:12;;;;;;;;;;;;;;;;;;;;;
2023/10/12 10:35:42;;;;;;;1533.80;831.90;;;;;;;15.22;100.00;100203.05;223987;1264;139865;-85
2023/10/12 10:47:46;;;;;;;978.10;680.50;;;;;;;15.23;100.00;100213.18;224262;1265;140655;-85
2023/10/12 10:53:36;;;;;;;;;;;;;;;;;;;;;
2023/10/12 10:59:38;;;;;;;584.40;506.50;;;;;;;15.19;100.00;100212.60;224166;1265;140658;-86
2023/10/12 11:05:09;;;;;;;491.50;437.80;;;;;;;15.17;100.00;100217.38;224126;1266;139744;-85
2023/10/12 11:10:19;;;;;;;572.10;483.20;;;;;;;15.17;100.00;100215.63;223660;1265;141152;-86
2023/10/12 11:16:20;;;;;;;537.80;473.40;;;;;;;15.16;100.00;100212.63;224230;1265;108124;-86
2023/10/12 11:21:17;;;;;;;404.30;367.20;;;;;;;15.09;100.00;100212.01;223800;1266;143054;-85
2023/10/12 11:26:22;;;;;;;478.00;431.60;;;;;;;15.05;100.00;100220.66;224541;1265;139925;-86
2023/10/12 11:31:31;;;;;;;213.90;198.40;;;;;;;15.01;100.00;100222.45;223588;1263;140954;-87
2023/10/12 11:36:45;;;;;;;280.00;257.80;;;;;;;14.92;100.00;100220.09;224316;1263;139814;-86
2023/10/12 11:42:13;;;;;;;235.30;217.80;;;;;;;14.83;100.00;100223.96;223720;1266;141749;-87
2023/10/12 11:48:14;;;;;;;;;;;;;;;;;;;;;
2023/10/12 11:53:34;;;;;;;138.40;127.80;;;;;;;14.67;100.00;100218.58;223688;1263;140689;-86
2023/10/12 11:59:35;;;;;;;296.10;272.50;;;;;;;14.61;100.00;100225.36;224040;1263;139654;-85
2023/10/12 12:04:50;;;;;;;;;;;;;;;;;;;;;
2023/10/12 12:10:13;;;;;;;211.80;195.10;;;;;;;14.54;100.00;100225.58;223575;1263;141423;-86
2023/10/12 12:15:14;;;;;;;325.20;296.00;;;;;;;14.52;100.00;100230.82;224312;1263;95929;-86
2023/10/12 12:21:02;;;;;;;202.10;186.40;;;;;;;14.52;100.00;100236.27;223799;1263;140724;-85
2023/10/12 12:25:39;;;;;;;133.60;124.40;;;;;;;14.47;100.00;100243.76;224326;1266;139477;-85
2023/10/12 12:31:32;;;;;;;64.10;58.70;;;;;;;14.44;100.00;100247.80;223736;1263;140822;-87
2023/10/12 12:37:05;;;;;;;88.30;81.90;;;;;;;14.40;100.00;100242.45;224229;1263;139798;-86
2023/10/12 12:42:45;;;;;;;;;;;;;;;;;;;;;
2023/10/12 12:48:01;;;;;;;;;;;;;;;;;;;;;
2023/10/12 12:53:53;;;;;;;;;;;;;;;;;;;;;
2023/10/12 12:59:25;;;;;;;;;;;;;;;;;;;;;
2023/10/12 13:05:12;;;;;;;53.20;48.30;;;;;;;14.56;100.00;100246.38;223879;1263;387673;-87
2023/10/12 13:10:34;;;;;;;36.40;32.10;;;;;;;14.65;100.00;100248.66;223653;1265;140799;-88
2023/10/12 13:15:59;;;;;;;229.90;212.40;;;;;;;14.68;100.00;100244.21;224258;1264;108204;-86
2023/10/12 13:22:02;;;;;;;139.30;128.40;;;;;;;14.75;100.00;100248.82;224016;1265;140759;-87
2023/10/12 13:27:21;;;;;;;37.50;33.70;;;;;;;14.81;100.00;100265.08;224172;1267;138458;-86
2023/10/12 13:33:11;;;;;;;;;;;;;;;;;;;;;
2023/10/12 13:39:13;;;;;;;35.70;32.30;;;;;;;14.79;100.00;100268.18;224179;1267;139141;-86
2023/10/12 13:45:18;;;;;;;61.30;56.70;;;;;;;14.85;99.88;100263.46;223791;1263;247468;-87
2023/10/12 13:51:07;;;;;;;;;;;;;;;;;;;;;
2023/10/12 13:56:56;;;;;;;118.80;110.20;;;;;;;15.01;100.00;100260.21;224009;1263;139218;-86
2023/10/12 14:02:54;;;;;;;65.20;60.10;;;;;;;15.09;100.00;100256.34;223464;1263;140780;-86
2023/10/12 14:08:32;;;;;;;119.60;111.10;;;;;;;15.16;100.00;100268.31;224177;1263;139346;-86
2023/10/12 14:14:19;;;;;;;;;;;;;;;;;;;;;
2023/10/12 14:20:08;;;;;;;258.40;238.30;;;;;;;15.26;100.00;100274.14;223694;1263;140975;-86
2023/10/12 14:26:08;;;;;;;98.90;91.70;;;;;;;15.32;100.00;100279.80;224149;1266;139638;-86
2023/10/12 14:31:28;;;;;;;179.90;166.50;;;;;;;15.33;100.00;100280.74;223593;1263;140509;-85
2023/10/12 14:37:23;;;;;;;;;;;;;;;;;;;;;
2023/10/12 14:42:29;;;;;;;117.70;109.10;;;;;;;15.30;99.69;100290.19;223622;1263;141119;-85
2023/10/12 14:47:46;;;;;;;114.50;105.80;;;;;;;15.28;99.68;100293.20;224062;1263;139735;-85
2023/10/12 14:53:01;;;;;;;256.00;235.90;;;;;;;15.24;99.51;100308.64;223600;1263;141082;-84
2023/10/12 14:58:07;;;;;;;216.40;200.00;;;;;;;15.21;100.00;100319.59;224246;1267;95936;-85
2023/10/12 15:03:34;;;;;;;101.50;94.40;;;;;;;15.14;99.98;100312.52;223621;1263;140448;-85
2023/10/12 15:08:54;;;;;;;144.60;133.80;;;;;;;15.06;100.00;100315.38;224342;1263;139244;-85
2023/10/12 15:14:42;;;;;;;;;;;;;;;;;;;;;
2023/10/12 15:19:43;;;;;;;;;;;;;;;14.94;100.00;100316.27;223624;1263;140848;-86
2023/10/12 15:24:46;;;;;;;87.70;81.40;;;;;;;14.88;100.00;100319.16;224109;1263;125914;-86
2023/10/12 15:30:11;;;;;;;212.30;195.60;;;;;;;14.82;100.00;100325.47;223732;1263;140697;-85
2023/10/12 15:35:35;;;;;;;243.80;223.90;;;;;;;14.73;100.00;100328.62;224234;1263;140140;-85
2023/10/12 15:41:39;;;;;;;199.30;184.90;;;;;;;14.63;100.00;100326.39;223681;1263;141703;-84
2023/10/12 15:47:16;;;;;;;;;;;;;;;;;;;;;
2023/10/12 15:52:55;;;;;;;179.50;165.70;;;;;;;14.38;100.00;100336.05;223626;1263;140756;-84
2023/10/12 15:58:56;;;;;;;176.50;162.60;;;;;;;14.21;100.00;100342.22;224312;1267;106085;-84
2023/10/12 16:04:55;;;;;;;;;;;;;;;;;;;;;
2023/10/12 16:10:40;;;;;;;103.50;95.20;;;;;;;13.88;100.00;100337.22;224124;1267;140919;-84
2023/10/12 16:15:50;;;;;;;116.00;106.80;;;;;;;13.73;100.00;100338.61;224298;1265;105044;-84
2023/10/12 16:21:25;;;;;;;;;;;;;;;;;;;;;
2023/10/12 16:27:27;;;;;;;111.20;102.80;;;;;;;13.33;100.00;100347.00;224173;1267;140468;-84
2023/10/12 16:33:24;;;;;;;74.80;66.00;;;;;;;13.14;100.00;100352.63;223604;1264;140818;-85
2023/10/12 16:39:16;;;;;;;103.90;77.90;;;;;;;12.97;100.00;100362.71;224024;1267;139112;-85
2023/10/12 16:45:02;;;;;;;117.00;106.30;;;;;;;12.86;100.00;100369.09;223712;1266;244995;-85
2023/10/12 16:50:35;;;;;;;76.70;70.20;;;;;;;12.76;100.00;100377.05;223624;1266;140820;-84
2023/10/12 16:55:46;;;;;;;78.10;71.10;;;;;;;12.62;100.00;100379.92;224232;1266;139501;-85
2023/10/12 17:01:50;;;;;;;79.10;72.60;;;;;;;12.48;100.00;100382.04;223649;1263;141056;-85
2023/10/12 17:07:22;;;;;;;66.10;59.00;;;;;;;12.32;100.00;100384.75;224385;1267;139410;-85
2023/10/12 17:12:49;;;;;;;67.20;59.20;;;;;;;12.20;100.00;100395.35;223496;1268;140838;-85
2023/10/12 17:18:06;;;;;;;42.70;37.40;;;;;;;12.06;100.00;100406.95;224251;1267;139297;-85
2023/10/12 17:23:17;;;;;;;;;;;;;;;11.91;100.00;100411.06;223679;1267;140512;-83
2023/10/12 17:28:51;;;;;;;;;;;;;;;;;;;;;
2023/10/12 17:34:00;;;;;;;21.70;15.00;;;;;;;11.60;100.00;100424.31;223765;1266;140586;-85
2023/10/12 17:39:31;;;;;;;;;;;;;;;;;;;;;
2023/10/12 17:45:08;;;;;;;;;;;;;;;;;;;;;
2023/10/12 17:51:03;;;;;;;17.40;12.00;;;;;;;11.27;100.00;100436.02;223642;1263;141630;-85
2023/10/12 17:57:21;;;;;;;17.40;8.60;;;;;;;11.19;100.00;100431.55;224267;1267;139321;-84
2023/10/12 18:03:02;;;;;;;;;;;;;;;11.04;100.00;100437.38;223155;1264;140669;-84
2023/10/12 18:14:40;;;;;;;;;;;;;;;;;;;;;
2023/10/12 18:20:25;;;;;;;29.10;14.00;;;;;;;10.73;100.00;100435.42;223691;1264;141189;-84
2023/10/12 18:26:28;;;;;;;20.20;10.60;;;;;;;10.60;100.00;100442.38;224284;1264;139500;-85
2023/10/12 18:32:21;;;;;;;;;;;;;;;;;;;;;
2023/10/12 18:38:13;;;;;;;;;;;;;;;;;;;;;
2023/10/12 18:44:15;;;;;;;26.10;13.50;;;;;;;10.33;100.00;100451.40;223589;1264;143507;-86
2023/10/12 18:50:02;;;;;;;31.90;15.30;;;;;;;10.27;100.00;100460.68;223691;1264;140684;-85
2023/10/12 18:56:03;;;;;;;26.10;13.80;;;;;;;10.18;100.00;100469.43;224726;1264;139949;-85
2023/10/12 19:02:15;;;;;;;;;;;;;;;;;;;;;
2023/10/12 19:07:55;;;;;;;;;;;;;;;;;;;;;
2023/10/12 19:13:08;;;;;;;37.70;20.60;;;;;;;9.99;100.00;100459.18;223651;1264;140501;-85
2023/10/12 19:18:18;;;;;;;25.70;15.00;;;;;;;9.98;100.00;100469.52;224276;1264;139599;-86
2023/10/12 19:23:51;;;;;;;28.40;17.90;;;;;;;9.95;100.00;100480.64;223708;1264;140025;-85
2023/10/12 19:28:52;;;;;;;31.90;18.30;;;;;;;9.91;100.00;100476.04;224241;1263;139630;-84
2023/10/12 19:34:37;;;;;;;33.10;17.40;;;;;;;9.92;100.00;100483.27;223683;1263;140090;-85
2023/10/12 19:40:38;;;;;;;32.50;17.70;;;;;;;9.89;100.00;100484.71;223774;1263;140265;-85
2023/10/12 19:46:29;;;;;;;29.90;15.00;;;;;;;9.86;100.00;100474.08;224505;1263;104670;-85
2023/10/12 19:52:26;;;;;;;;;;;;;;;;;;;;;
2023/10/12 19:58:12;;;;;;;;;;;;;;;;;;;;;
2023/10/12 20:04:20;;;;;;;59.50;29.30;;;;;;;9.64;100.00;100487.94;223757;1263;140404;-85
2023/10/12 20:09:59;;;;;;;66.30;35.50;;;;;;;9.60;100.00;100488.29;223710;1263;140341;-84
2023/10/12 20:15:30;;;;;;;;;;;;;;;;;;;;;
2023/10/12 20:21:33;;;;;;;68.30;33.70;;;;;;;9.57;100.00;100486.82;223737;1263;140010;-84
2023/10/12 20:26:35;;;;;;;52.90;25.80;;;;;;;9.53;100.00;100489.04;224170;1263;138918;-84
2023/10/12 20:32:38;;;;;;;48.00;23.60;;;;;;;9.50;100.00;100494.01;223650;1263;140182;-83
2023/10/12 20:38:38;;;;;;;53.40;24.20;;;;;;;9.38;100.00;100493.17;220322;1263;5509551;-84
2023/10/12 20:43:25;;;;;;;41.30;24.30;;;;;;;9.30;100.00;100496.26;224047;1263;139860;-84
2023/10/12 20:48:57;;;;;;;;;;;;;;;;;;;;;
2023/10/12 20:54:15;;;;;;;38.80;22.60;;;;;;;9.26;100.00;100490.16;223692;1264;140216;-84
2023/10/12 21:00:07;;;;;;;;;;;;;;;;;;;;;
2023/10/12 21:05:47;;;;;;;42.10;21.80;;;;;;;9.15;100.00;100487.28;224259;1263;139525;-85
2023/10/12 21:11:18;;;;;;;39.00;22.40;;;;;;;9.10;100.00;100479.27;223856;1263;140085;-84
2023/10/12 21:16:49;;;;;;;43.10;24.60;;;;;;;9.08;100.00;100487.09;224457;1263;95992;-85
2023/10/12 21:22:09;;;;;;;48.00;25.90;;;;;;;9.07;100.00;100490.19;223893;1263;140037;-84
2023/10/12 21:27:47;;;;;;;44.90;23.60;;;;;;;9.05;100.00;100482.08;224344;1263;139445;-84
2023/10/12 21:33:42;;;;;;;49.60;25.70;;;;;;;9.02;100.00;100484.39;223850;1262;139915;-84
2023/10/12 21:44:56;;;;;;;37.10;22.40;;;;;;;8.91;100.00;100489.98;223514;1263;139395;-84
2023/10/12 21:50:27;;;;;;;49.20;26.90;;;;;;;8.86;100.00;100480.48;223819;1262;140185;-83
2023/10/12 21:55:37;;;;;;;53.90;28.10;;;;;;;8.81;100.00;100474.42;224220;1263;139614;-84
2023/10/12 22:06:50;;;;;;;50.40;31.50;;;;;;;8.75;100.00;100491.72;224279;1263;139070;-83
2023/10/12 22:12:27;;;;;;;56.90;32.20;;;;;;;8.66;100.00;100494.77;223802;1263;140532;-83
2023/10/12 22:18:08;;;;;;;55.90;30.80;;;;;;;8.63;100.00;100491.09;224204;1263;139132;-83
2023/10/12 22:23:40;;;;;;;43.00;24.00;;;;;;;8.62;100.00;100500.31;223851;1263;140327;-83
2023/10/12 22:29:43;;;;;;;46.90;27.00;;;;;;;8.60;100.00;100498.80;224729;1263;137809;-82
2023/10/12 22:35:33;;;;;;;48.50;28.50;;;;;;;8.63;100.00;100499.16;224115;1263;365471;-83
2023/10/12 22:41:33;;;;;;;55.70;24.60;;;;;;;8.66;100.00;100490.30;223839;1263;140928;-82
2023/10/12 22:47:18;;;;;;;46.20;24.70;;;;;;;8.71;100.00;100491.86;224395;1263;111121;-83
2023/10/12 22:53:10;;;;;;;67.40;26.20;;;;;;;8.73;100.00;100489.09;223905;1263;140393;-82
2023/10/12 22:59:05;;;;;;;52.60;22.30;;;;;;;8.78;100.00;100481.90;224450;1263;111840;-83
2023/10/12 23:04:58;;;;;;;;;;;;;;;;;;;;;
2023/10/12 23:11:18;;;;;;;50.50;20.70;;;;;;;8.97;100.00;100502.65;223691;1263;141050;-83
2023/10/12 23:16:30;;;;;;;45.80;20.70;;;;;;;9.05;100.00;100505.53;224281;1263;139207;-83
2023/10/12 23:28:46;;;;;;;;;;;;;;;;;;;;;
2023/10/12 23:34:52;;;;;;;35.40;18.60;;;;;;;9.38;100.00;100523.39;223766;1263;142119;-83
2023/10/12 23:40:46;;;;;;;42.40;21.30;;;;;;;9.49;100.00;100516.45;223699;1263;140281;-83
2023/10/12 23:46:51;;;;;;;47.10;24.90;;;;;;;9.60;100.00;100511.27;224229;1266;138997;-83
2023/10/12 23:52:22;;;;;;;;;;;;;;;9.71;100.00;100509.58;223823;1263;140309;-82
2023/10/12 23:57:54;;;;;;;46.50;23.70;;;;;;;9.82;100.00;100516.27;224376;1263;125429;-83
